Reese, Ohio
Current Conditions -  °F | °C
As of 8:15 AM on Wednesday 22 Oct 2014 (Local Time) from KLCK Reporting Station
Overcast Overcast  
Wind Chill: 38°   Ceiling: 1200
Heat Index: 44°   Visibility: 10mi
Dew Point: 40°   Wind: 13mph
Humidity: 87%   Direction: 340°NNW
Pressure: 30.23"   Gusts: NA
Location:  39.8938°N, 82.9624°W
Report Text: KLCK 221215Z AUTO 34011KT 10SM OVC012 07/05 A3023 RMK AO2 T00660046
Loading
Personal Weather Stations






























Interactive Weather Map
Tropical Storm Tracking
New forecast layout! Learn more

10-Day Weather Forecast

Advertisements
Track Severe Weather on mobile